WEATHER

Warnervale Skycam

North West View

North West View

South West View

South West View

Sydney Airport Forecast

  • YSSY TAF

    TAF YSSY 192305Z 2000/2106 17015KT 9999 SCT035 FM201000 27005KT 9999 SCT030 FM201800 15005KT 9999 SCT025 FM210000 12010KT 9999 SCT030 RMK T 22 22 22 21 Q 1011 1011 1011 1013

  • YSSY METAR

    TTF METAR YSSY 200200Z 17015KT 9999 FEW030 SCT060 22/13 Q1011 RMK RF00.0/000.0 NOSIG

All information provided on this page is for general information and should NOT be used for flight planning.